Time;durP1;ratioP1;P1;durP2;ratioP2;P2;SDS_P1;SDS_P2;PMS_P1;PMS_P2;Temp;Humidity;BMP_temperature;BMP_pressure;BME280_temperature;BME280_humidity;BME280_pressure;Samples;Min_cycle;Max_cycle;Signal;HPM_P1;HPM_P2
2022/12/21 00:01:11;;;;;;;5.83;5.07;;;0.10;77.90;;;;;;5081678;28;20178;-69
2022/12/21 00:03:37;;;;;;;10.67;6.23;;;0.10;77.70;;;;;;5081782;28;20182;-69
2022/12/21 00:06:04;;;;;;;13.13;5.83;;;0.10;77.90;;;;;;5082795;28;20186;-69
2022/12/21 00:08:30;;;;;;;5.73;5.13;;;0.10;78.00;;;;;;5082380;28;20248;-69
2022/12/21 00:10:59;;;;;;;8.53;4.23;;;0.10;78.00;;;;;;5082065;28;22096;-69
2022/12/21 00:13:25;;;;;;;7.63;3.83;;;0.10;77.70;;;;;;5082306;28;20181;-68
2022/12/21 00:15:59;;;;;;;5.00;4.50;;;0.10;77.70;;;;;;5081315;28;20182;-68
2022/12/21 00:18:25;;;;;;;4.77;4.33;;;0.10;77.80;;;;;;5080934;28;20170;-69
2022/12/21 00:21:09;;;;;;;4.90;4.40;;;0.10;78.00;;;;;;5080049;28;20178;-69
2022/12/21 00:23:34;;;;;;;3.97;3.63;;;0.10;78.10;;;;;;5082762;28;20208;-69
2022/12/21 00:26:02;;;;;;;8.20;5.87;;;0.10;78.30;;;;;;5082228;28;20726;-69
2022/12/21 00:28:28;;;;;;;7.90;5.37;;;0.10;78.30;;;;;;5081057;28;20182;-70
2022/12/21 00:30:55;;;;;;;5.27;3.70;;;0.00;78.20;;;;;;5082171;28;20222;-69
2022/12/21 00:33:23;;;;;;;6.30;4.67;;;0.00;78.30;;;;;;5081187;28;20558;-69
2022/12/21 00:35:51;;;;;;;5.80;4.43;;;0.00;78.50;;;;;;5082255;28;20174;-68
2022/12/21 00:38:18;;;;;;;5.97;4.30;;;0.00;78.50;;;;;;5080733;28;20681;-70
2022/12/21 00:40:44;;;;;;;7.07;3.77;;;0.00;78.00;;;;;;5081843;28;20638;-69
2022/12/21 00:43:11;;;;;;;9.23;3.97;;;0.00;78.40;;;;;;5080427;28;20202;-69
2022/12/21 00:45:37;;;;;;;6.50;4.53;;;0.00;78.20;;;;;;5081922;28;20694;-70
2022/12/21 00:48:03;;;;;;;9.37;4.23;;;-0.10;78.30;;;;;;5080479;28;20273;-70
2022/12/21 00:50:28;;;;;;;4.80;4.40;;;-0.10;78.30;;;;;;5081810;28;20213;-68
2022/12/21 00:52:54;;;;;;;4.07;3.77;;;-0.10;78.10;;;;;;5081510;28;20678;-68
2022/12/21 00:55:19;;;;;;;5.93;4.47;;;-0.10;78.40;;;;;;5081649;28;20613;-69
2022/12/21 00:57:45;;;;;;;4.47;3.73;;;-0.10;78.40;;;;;;5080777;28;20208;-69
2022/12/21 01:00:11;;;;;;;4.03;3.73;;;-0.10;78.50;;;;;;5081912;28;20753;-69
2022/12/21 01:02:37;;;;;;;3.10;2.83;;;-0.10;78.60;;;;;;5083965;28;20569;-69
2022/12/21 01:05:03;;;;;;;6.30;4.47;;;-0.10;78.80;;;;;;5085069;28;20198;-69
2022/12/21 01:07:29;;;;;;;3.00;2.57;;;-0.10;78.70;;;;;;5084805;28;20214;-69
2022/12/21 01:09:54;;;;;;;3.03;2.63;;;-0.10;78.70;;;;;;5084743;28;20231;-68
2022/12/21 01:12:20;;;;;;;4.20;3.90;;;-0.10;78.80;;;;;;5084785;28;20220;-69
2022/12/21 01:14:46;;;;;;;6.07;3.80;;;-0.10;78.90;;;;;;5083980;28;20190;-69
2022/12/21 01:17:12;;;;;;;4.20;3.83;;;-0.20;78.90;;;;;;5084649;28;20618;-69
2022/12/21 01:19:37;;;;;;;3.73;3.07;;;-0.20;79.00;;;;;;5085138;28;20648;-69
2022/12/21 01:22:03;;;;;;;2.93;2.60;;;-0.20;79.00;;;;;;5083479;28;20190;-69
2022/12/21 01:24:29;;;;;;;3.93;3.57;;;-0.20;78.90;;;;;;5084482;28;20865;-69
2022/12/21 01:26:55;;;;;;;3.37;3.17;;;;;;;;;;5085080;28;20289;-69
2022/12/21 01:29:21;;;;;;;10.10;4.90;;;;;;;;;;5084672;28;20210;-69
2022/12/21 01:31:46;;;;;;;6.83;3.97;;;-0.20;79.50;;;;;;5083047;28;20202;-69
2022/12/21 01:34:12;;;;;;;7.13;3.77;;;-0.30;79.30;;;;;;5084948;28;20206;-69
2022/12/21 01:36:38;;;;;;;7.73;5.07;;;-0.30;79.20;;;;;;5085224;28;20282;-70
2022/12/21 01:39:05;;;;;;;4.60;4.13;;;-0.30;79.20;;;;;;5085156;28;20186;-69
2022/12/21 01:41:31;;;;;;;9.47;4.00;;;-0.30;79.00;;;;;;5082033;28;21064;-68
2022/12/21 01:43:56;;;;;;;8.97;3.70;;;-0.30;78.80;;;;;;5084390;28;20624;-69
2022/12/21 01:46:25;;;;;;;4.60;4.17;;;-0.30;79.00;;;;;;5084502;28;20190;-68
2022/12/21 01:48:57;;;;;;;3.47;3.10;;;-0.30;79.10;;;;;;5083562;28;20197;-69
2022/12/21 01:51:23;;;;;;;6.43;4.67;;;-0.30;79.20;;;;;;5081229;28;20218;-70
2022/12/21 01:54:00;;;;;;;4.57;3.67;;;-0.30;79.10;;;;;;5084682;28;20186;-68
2022/12/21 01:56:32;;;;;;;5.90;4.60;;;-0.30;79.10;;;;;;5081966;28;20467;-68
2022/12/21 01:59:12;;;;;;;2.97;2.77;;;-0.30;79.20;;;;;;5082461;28;20201;-68
2022/12/21 02:01:38;;;;;;;8.93;4.37;;;-0.30;79.20;;;;;;5083244;28;20183;-69
2022/12/21 02:04:06;;;;;;;2.23;2.13;;;-0.30;79.20;;;;;;5082897;28;20208;-69
2022/12/21 02:06:38;;;;;;;6.77;2.77;;;-0.30;79.30;;;;;;5084332;28;20183;-69
2022/12/21 02:09:04;;;;;;;3.70;3.33;;;-0.30;79.30;;;;;;5083982;28;20268;-68
2022/12/21 02:11:30;;;;;;;3.40;3.20;;;-0.30;79.50;;;;;;5083620;28;20182;-70
2022/12/21 02:13:56;;;;;;;3.37;3.07;;;-0.30;79.50;;;;;;5084703;28;20208;-69
2022/12/21 02:16:33;;;;;;;3.67;3.07;;;-0.30;79.50;;;;;;5081862;28;20190;-70
2022/12/21 02:19:36;;;;;;;4.13;3.10;;;-0.40;79.10;;;;;;5081850;28;20698;-69
2022/12/21 02:22:11;;;;;;;3.47;3.20;;;-0.40;79.80;;;;;;5083597;28;20247;-69
2022/12/21 02:24:55;;;;;;;4.23;3.67;;;-0.40;79.60;;;;;;5083445;28;20189;-70
2022/12/21 02:27:42;;;;;;;9.27;3.00;;;-0.40;79.90;;;;;;5083763;28;20186;-70
2022/12/21 02:30:20;;;;;;;4.37;2.77;;;-0.50;79.90;;;;;;5083169;28;20218;-69
2022/12/21 02:33:16;;;;;;;5.90;3.83;;;-0.50;79.90;;;;;;5082182;28;20666;-69
2022/12/21 02:35:45;;;;;;;7.77;3.83;;;-0.50;79.90;;;;;;5084257;28;20269;-69
2022/12/21 02:38:59;;;;;;;4.23;3.90;;;-0.50;79.90;;;;;;5083313;28;20668;-69
2022/12/21 02:41:39;;;;;;;5.10;3.17;;;-0.50;79.90;;;;;;5087298;28;20197;-69
2022/12/21 02:44:34;;;;;;;2.73;2.63;;;-0.50;79.70;;;;;;5077100;28;20776;-69
2022/12/21 02:47:15;;;;;;;5.60;2.80;;;-0.50;80.00;;;;;;5090094;28;20629;-68
2022/12/21 02:50:22;;;;;;;3.17;2.70;;;-0.50;80.20;;;;;;5096565;28;20651;-68
2022/12/21 02:53:12;;;;;;;5.90;3.10;;;-0.50;79.90;;;;;;5088088;28;20214;-70
2022/12/21 02:55:38;;;;;;;3.73;3.23;;;-0.50;80.00;;;;;;5093901;28;20185;-70
2022/12/21 02:58:22;;;;;;;6.43;3.40;;;-0.50;80.00;;;;;;5093194;28;20658;-70
2022/12/21 03:00:50;;;;;;;2.83;2.63;;;-0.50;80.20;;;;;;5093083;28;20667;-69
2022/12/21 03:03:56;;;;;;;8.77;2.83;;;-0.60;80.20;;;;;;5090902;28;20182;-68
2022/12/21 03:06:25;;;;;;;3.70;3.07;;;-0.60;80.40;;;;;;5091355;28;20255;-69
2022/12/21 03:09:19;;;;;;;8.83;4.00;;;-0.60;80.40;;;;;;5091855;28;20202;-70
2022/12/21 03:12:13;;;;;;;3.40;2.73;;;-0.60;80.80;;;;;;5094642;28;20291;-70
2022/12/21 03:14:41;;;;;;;3.17;2.97;;;-0.60;80.70;;;;;;5094547;28;20187;-70
2022/12/21 03:17:25;;;;;;;5.10;3.47;;;-0.60;80.80;;;;;;5095379;28;20298;-70
2022/12/21 03:20:10;;;;;;;8.30;3.87;;;-0.60;81.10;;;;;;5083387;28;20190;-69
2022/12/21 03:22:49;;;;;;;4.83;3.33;;;-0.60;81.00;;;;;;5080543;28;20190;-69
2022/12/21 03:25:23;;;;;;;6.57;4.17;;;-0.60;81.00;;;;;;5082044;28;20182;-69
2022/12/21 03:27:53;;;;;;;4.87;4.47;;;-0.60;80.60;;;;;;5082813;28;20186;-69
2022/12/21 03:30:20;;;;;;;7.93;3.13;;;-0.70;80.50;;;;;;5080967;28;20225;-69
2022/12/21 03:33:02;;;;;;;7.33;3.43;;;-0.60;80.50;;;;;;5083437;28;20263;-70
2022/12/21 03:35:31;;;;;;;3.97;2.63;;;-0.70;80.50;;;;;;5081678;28;20698;-69
2022/12/21 03:38:01;;;;;;;2.73;2.60;;;-0.70;80.60;;;;;;5080492;28;20210;-69
2022/12/21 03:40:31;;;;;;;5.23;2.33;;;-0.70;80.40;;;;;;5064325;28;20190;-69
2022/12/21 03:43:05;;;;;;;3.30;2.80;;;-0.70;80.40;;;;;;5081634;28;20197;-70
2022/12/21 03:45:38;;;;;;;4.20;3.50;;;-0.70;80.40;;;;;;5081571;28;20193;-70
2022/12/21 03:48:10;;;;;;;3.27;2.97;;;-0.70;80.40;;;;;;5080148;28;20611;-69
2022/12/21 03:50:42;;;;;;;7.10;3.00;;;-0.70;80.50;;;;;;5082227;28;20220;-70
2022/12/21 03:53:32;;;;;;;7.13;3.93;;;-0.60;80.50;;;;;;5082339;28;20190;-70
2022/12/21 03:56:01;;;;;;;5.50;3.23;;;-0.60;80.60;;;;;;5082613;28;20186;-69
2022/12/21 03:58:28;;;;;;;4.50;3.27;;;-0.60;80.60;;;;;;5079935;28;20170;-70
2022/12/21 04:01:31;;;;;;;9.37;4.13;;;-0.60;80.60;;;;;;5082836;28;20182;-69
2022/12/21 04:04:05;;;;;;;9.20;5.33;;;-0.60;80.60;;;;;;5082583;28;20174;-68
2022/12/21 04:06:34;;;;;;;6.43;4.60;;;-0.60;80.70;;;;;;5082118;28;20184;-69
2022/12/21 04:09:03;;;;;;;9.40;4.23;;;-0.60;80.70;;;;;;5082096;28;20174;-70
2022/12/21 04:14:21;;;;;;;6.27;5.27;;;-0.60;80.80;;;;;;5081907;28;20192;-69
2022/12/21 04:16:47;;;;;;;5.17;4.77;;;-0.60;81.00;;;;;;5080814;28;20170;-69
2022/12/21 04:21:57;;;;;;;5.97;3.67;;;-0.60;81.10;;;;;;5082468;28;20209;-69
2022/12/21 04:28:07;;;;;;;5.30;4.77;;;-0.60;81.30;;;;;;5082404;28;20185;-69
2022/12/21 04:29:55;;;;;;;12.80;6.37;;;-0.60;81.30;;;;;;5081091;28;20210;-70
2022/12/21 04:32:22;;;;;;;8.27;4.80;;;-0.70;81.30;;;;;;5079517;28;20272;-69
2022/12/21 04:34:48;;;;;;;4.13;3.53;;;-0.70;81.30;;;;;;5081274;28;20183;-70
2022/12/21 04:37:34;;;;;;;5.20;3.50;;;-0.70;81.30;;;;;;5079997;28;20629;-70
2022/12/21 04:40:00;;;;;;;4.60;4.20;;;-0.70;81.40;;;;;;5081008;28;20246;-69
2022/12/21 04:42:26;;;;;;;5.20;4.70;;;-0.70;81.50;;;;;;5078521;28;20178;-69
2022/12/21 04:44:52;;;;;;;8.57;5.53;;;-0.80;81.50;;;;;;5081584;28;20225;-69
2022/12/21 04:47:18;;;;;;;7.03;5.13;;;-0.70;81.60;;;;;;5081528;28;20182;-69
2022/12/21 04:49:44;;;;;;;10.47;5.27;;;-0.80;81.60;;;;;;5082283;28;20202;-69
2022/12/21 04:52:09;;;;;;;8.00;4.70;;;-0.80;81.70;;;;;;5082392;28;20193;-70
2022/12/21 04:54:35;;;;;;;13.03;7.33;;;-0.70;81.80;;;;;;5080951;28;20182;-71
2022/12/21 04:57:01;;;;;;;8.87;5.90;;;-0.80;81.80;;;;;;5081296;28;20174;-70
2022/12/21 04:59:27;;;;;;;8.10;5.93;;;-0.80;81.80;;;;;;5080492;28;20777;-70
2022/12/21 05:01:52;;;;;;;9.10;6.30;;;-0.80;81.80;;;;;;5080860;28;20178;-70
2022/12/21 05:04:18;;;;;;;5.23;4.50;;;-0.80;81.80;;;;;;5081247;28;20243;-69
2022/12/21 05:06:44;;;;;;;7.70;5.87;;;-0.80;81.80;;;;;;5079003;28;20190;-70
2022/12/21 05:09:13;;;;;;;7.90;4.67;;;-0.80;81.90;;;;;;5081682;28;20281;-70
2022/12/21 05:11:39;;;;;;;4.93;4.50;;;-0.80;81.90;;;;;;5080639;28;20213;-69
2022/12/21 05:14:04;;;;;;;10.57;4.67;;;-0.80;81.90;;;;;;5079865;28;20210;-69
2022/12/21 05:16:31;;;;;;;5.80;4.37;;;-0.80;81.90;;;;;;5081127;28;20625;-69
2022/12/21 05:18:56;;;;;;;5.50;4.60;;;-0.80;81.90;;;;;;5079840;28;20206;-69
2022/12/21 05:21:24;;;;;;;5.30;3.83;;;-0.80;81.90;;;;;;5081799;28;20209;-69
2022/12/21 05:23:50;;;;;;;30.40;4.83;;;-0.80;82.10;;;;;;5080867;28;20259;-70
2022/12/21 05:26:16;;;;;;;11.33;5.80;;;-0.80;82.30;;;;;;5080723;28;20174;-68
2022/12/21 05:28:43;;;;;;;11.43;4.80;;;-0.80;82.30;;;;;;5079311;28;20182;-70
2022/12/21 05:31:09;;;;;;;10.70;5.03;;;-0.90;82.30;;;;;;5080876;28;20214;-70
2022/12/21 05:33:34;;;;;;;14.67;4.20;;;-0.90;82.30;;;;;;5080941;28;20189;-69
2022/12/21 05:36:02;;;;;;;4.53;3.93;;;-0.90;82.30;;;;;;5081336;28;20278;-69
2022/12/21 05:38:29;;;;;;;6.67;5.03;;;-0.90;82.30;;;;;;5078703;28;20567;-68
2022/12/21 05:40:55;;;;;;;12.90;4.20;;;-0.90;82.30;;;;;;5081670;28;20208;-70
2022/12/21 05:43:21;;;;;;;3.43;3.20;;;-0.90;82.30;;;;;;5081017;28;20256;-70
2022/12/21 05:45:46;;;;;;;6.87;6.20;;;-0.90;82.40;;;;;;5080554;28;20186;-70
2022/12/21 05:48:12;;;;;;;5.30;4.67;;;-0.90;82.40;;;;;;5084292;28;20190;-69
2022/12/21 05:50:39;;;;;;;4.80;4.10;;;-0.90;82.50;;;;;;5085513;28;20249;-70
2022/12/21 05:53:05;;;;;;;7.10;5.17;;;-0.90;82.50;;;;;;5084480;28;20884;-70
2022/12/21 05:55:31;;;;;;;5.50;4.13;;;-0.90;82.60;;;;;;5084509;28;20182;-70
2022/12/21 05:57:58;;;;;;;8.37;4.40;;;-0.90;82.70;;;;;;5084105;28;20170;-70
2022/12/21 06:00:23;;;;;;;5.87;5.00;;;-0.90;82.70;;;;;;5083598;28;20186;-69
2022/12/21 06:02:49;;;;;;;6.83;4.17;;;-0.90;82.80;;;;;;5084687;28;20209;-69
2022/12/21 06:05:15;;;;;;;6.97;6.10;;;-0.90;82.80;;;;;;5086166;28;20175;-70
2022/12/21 06:07:40;;;;;;;4.30;3.97;;;-0.90;83.00;;;;;;5085016;28;20676;-70
2022/12/21 06:10:07;;;;;;;10.10;5.30;;;-0.90;83.10;;;;;;5082892;28;20307;-70
2022/12/21 06:12:33;;;;;;;10.23;5.17;;;-0.90;83.10;;;;;;5082896;28;20189;-70
2022/12/21 06:14:59;;;;;;;4.67;4.30;;;-0.90;83.20;;;;;;5084621;28;20174;-70
2022/12/21 06:17:31;;;;;;;8.77;5.17;;;-0.90;83.20;;;;;;5083347;28;20263;-70
2022/12/21 06:19:57;;;;;;;5.90;4.03;;;-0.80;83.30;;;;;;5084018;28;20182;-70
2022/12/21 06:22:22;;;;;;;5.53;3.77;;;-0.80;83.40;;;;;;5083713;28;20248;-69
2022/12/21 06:24:48;;;;;;;4.33;3.87;;;-0.70;83.50;;;;;;5083401;28;20255;-70
2022/12/21 06:27:14;;;;;;;7.30;4.67;;;-0.70;83.60;;;;;;5083405;28;20183;-70
2022/12/21 06:29:39;;;;;;;5.83;5.07;;;-0.60;83.90;;;;;;5083635;28;20204;-70
2022/12/21 06:32:06;;;;;;;4.30;4.00;;;-0.50;84.40;;;;;;5080348;28;20186;-70
2022/12/21 06:34:32;;;;;;;6.90;4.33;;;-0.30;84.90;;;;;;5082854;28;20750;-69
2022/12/21 06:36:57;;;;;;;5.77;3.50;;;-0.20;85.40;;;;;;5083267;28;20267;-69
2022/12/21 06:39:23;;;;;;;4.33;3.97;;;0.00;85.70;;;;;;5081994;28;20182;-70
2022/12/21 06:41:49;;;;;;;8.90;4.47;;;0.30;86.20;;;;;;5083639;28;20174;-70
2022/12/21 06:44:14;;;;;;;6.90;5.33;;;0.60;86.40;;;;;;5082969;28;20186;-71
2022/12/21 06:46:40;;;;;;;6.83;4.80;;;0.90;86.70;;;;;;5079127;28;20179;-70
2022/12/21 06:49:06;;;;;;;4.00;3.60;;;1.20;86.90;;;;;;5083230;28;20216;-70
2022/12/21 06:51:31;;;;;;;5.37;4.87;;;1.60;86.60;;;;;;5082967;28;21101;-70
2022/12/21 06:53:57;;;;;;;5.53;4.60;;;2.00;86.30;;;;;;5082245;28;20190;-69
2022/12/21 06:56:25;;;;;;;7.67;4.73;;;2.40;85.90;;;;;;5081251;28;20178;-71
2022/12/21 06:58:53;;;;;;;5.77;4.80;;;2.90;85.20;;;;;;5079765;28;20272;-70
2022/12/21 07:01:21;;;;;;;12.13;6.83;;;3.30;84.60;;;;;;5083117;28;20665;-71
2022/12/21 07:03:47;;;;;;;8.50;6.17;;;3.70;83.90;;;;;;5083706;28;20195;-67
2022/12/21 07:06:15;;;;;;;13.87;6.37;;;4.20;82.90;;;;;;5081557;28;20757;-70
2022/12/21 07:08:41;;;;;;;12.23;5.93;;;4.60;81.80;;;;;;5080705;28;20893;-71
2022/12/21 07:11:10;;;;;;;10.17;7.73;;;5.00;80.40;;;;;;5081329;28;20213;-69
2022/12/21 07:13:38;;;;;;;10.80;6.67;;;5.20;79.00;;;;;;5079026;28;20355;-66
2022/12/21 07:16:05;;;;;;;9.93;5.23;;;5.50;77.10;;;;;;5081636;28;20685;-70
2022/12/21 07:18:30;;;;;;;7.83;6.43;;;5.60;75.10;;;;;;5082086;28;20185;-72
2022/12/21 07:21:04;;;;;;;9.17;6.90;;;5.60;74.10;;;;;;5080549;28;20825;-69
2022/12/21 07:23:31;;;;;;;8.10;6.73;;;5.60;73.50;;;;;;5080684;28;20178;-69
2022/12/21 07:25:57;;;;;;;8.93;6.67;;;5.60;73.60;;;;;;5082536;28;20185;-70
2022/12/21 07:28:24;;;;;;;8.53;6.63;;;5.60;73.00;;;;;;5085146;28;20178;-70
2022/12/21 07:30:51;;;;;;;10.30;6.50;;;5.60;72.80;;;;;;5086983;28;20216;-69
2022/12/21 07:33:18;;;;;;;15.27;7.37;;;5.60;72.20;;;;;;5082751;28;20190;-70
2022/12/21 07:35:44;;;;;;;9.73;7.23;;;5.50;72.00;;;;;;5083248;28;20186;-69
2022/12/21 07:38:10;;;;;;;10.00;7.53;;;5.50;71.60;;;;;;5083861;28;20178;-70
2022/12/21 07:40:37;;;;;;;11.57;7.63;;;5.40;71.20;;;;;;5082537;28;20218;-71
2022/12/21 07:43:10;;;;;;;16.07;7.73;;;5.40;71.10;;;;;;5080002;28;20178;-70
2022/12/21 07:45:39;;;;;;;15.00;7.97;;;5.40;71.90;;;;;;5082407;28;20194;-70
2022/12/21 07:48:05;;;;;;;8.93;6.60;;;5.40;72.30;;;;;;5080531;28;21035;-68
2022/12/21 07:50:31;;;;;;;13.10;8.37;;;5.50;72.00;;;;;;5085148;28;20214;-70
2022/12/21 07:52:58;;;;;;;15.70;7.97;;;5.60;71.80;;;;;;5083128;28;20547;-68
2022/12/21 07:55:25;;;;;;;11.33;7.40;;;5.70;72.50;;;;;;5082069;28;20174;-70
2022/12/21 07:57:51;;;;;;;9.67;7.33;;;6.00;73.00;;;;;;5082126;28;21101;-70
2022/12/21 08:00:17;;;;;;;17.57;8.63;;;6.30;72.90;;;;;;5082900;28;20202;-69
2022/12/21 08:02:43;;;;;;;17.37;7.83;;;6.70;72.80;;;;;;5082261;28;20235;-69
2022/12/21 08:05:09;;;;;;;15.23;8.70;;;7.10;72.40;;;;;;5082430;28;20187;-70
2022/12/21 08:07:35;;;;;;;12.10;9.00;;;7.50;72.00;;;;;;5082442;28;20749;-68
2022/12/21 08:10:00;;;;;;;15.17;9.03;;;7.80;70.70;;;;;;5081781;28;20205;-69
2022/12/21 08:12:26;;;;;;;14.27;8.93;;;8.20;70.50;;;;;;5082141;28;20904;-69
2022/12/21 08:14:52;;;;;;;13.73;9.13;;;8.70;69.20;;;;;;5082574;28;20186;-70
2022/12/21 08:17:17;;;;;;;15.63;9.80;;;9.10;63.70;;;;;;5082238;28;20189;-69
2022/12/21 08:19:43;;;;;;;16.27;9.17;;;9.40;67.70;;;;;;5082657;28;20178;-69
2022/12/21 08:22:09;;;;;;;20.73;9.97;;;9.80;67.50;;;;;;5082422;28;20186;-69
2022/12/21 08:24:35;;;;;;;17.33;10.25;;;10.30;66.80;;;;;;5081855;28;20185;-70
2022/12/21 08:27:01;;;;;;;16.85;11.73;;;10.70;64.90;;;;;;5081870;28;20208;-67
2022/12/21 08:29:27;;;;;;;14.95;10.10;;;11.00;63.40;;;;;;5081655;28;20214;-69
2022/12/21 08:31:53;;;;;;;19.85;12.27;;;11.20;63.10;;;;;;5082174;28;20277;-69
2022/12/21 08:34:19;;;;;;;17.73;11.38;;;11.40;62.00;;;;;;5082576;28;20239;-69
2022/12/21 08:36:45;;;;;;;17.90;10.82;;;11.50;61.50;;;;;;5082431;28;20177;-68
2022/12/21 08:39:10;;;;;;;20.15;10.93;;;11.50;61.60;;;;;;5082535;28;20182;-68
2022/12/21 08:41:37;;;;;;;19.67;10.80;;;11.70;60.70;;;;;;5082704;28;20273;-72
2022/12/21 08:44:03;;;;;;;21.25;11.70;;;11.80;60.40;;;;;;5082505;28;20271;-69
2022/12/21 08:46:29;;;;;;;25.27;11.93;;;11.80;60.20;;;;;;5082825;28;20182;-69
2022/12/21 08:48:54;;;;;;;19.38;11.88;;;12.00;60.80;;;;;;5082366;28;20208;-69
2022/12/21 08:51:20;;;;;;;19.60;11.75;;;12.30;60.60;;;;;;5082062;28;20305;-68
2022/12/21 08:53:46;;;;;;;19.23;11.90;;;12.60;60.60;;;;;;5082007;28;20270;-68
2022/12/21 08:56:12;;;;;;;17.50;12.75;;;12.90;59.90;;;;;;5080361;28;20655;-69
2022/12/21 08:58:38;;;;;;;19.02;13.25;;;13.30;59.40;;;;;;5081743;28;20185;-68
2022/12/21 09:01:04;;;;;;;21.23;12.40;;;13.70;59.30;;;;;;5081971;28;20567;-68
2022/12/21 09:03:30;;;;;;;17.20;11.52;;;14.10;58.80;;;;;;5082695;28;20167;-69
2022/12/21 09:05:59;;;;;;;18.63;11.38;;;14.60;57.90;;;;;;5082020;28;20182;-69
2022/12/21 09:08:25;;;;;;;21.13;11.57;;;14.90;57.00;;;;;;5082501;28;20178;-69
2022/12/21 09:11:03;;;;;;;18.17;12.07;;;15.00;56.30;;;;;;5080990;28;20306;-69
2022/12/21 09:13:29;;;;;;;16.88;11.15;;;15.10;55.60;;;;;;5082581;28;20266;-68
2022/12/21 09:15:55;;;;;;;14.70;11.27;;;15.30;55.90;;;;;;5078071;28;20229;-69
2022/12/21 09:18:20;;;;;;;14.77;10.35;;;15.60;55.60;;;;;;5081310;28;20182;-68
2022/12/21 09:20:46;;;;;;;17.05;11.25;;;15.90;54.90;;;;;;5081667;28;20186;-68
2022/12/21 09:23:13;;;;;;;16.00;11.02;;;16.20;54.80;;;;;;5084562;28;20190;-68
2022/12/21 09:25:39;;;;;;;17.40;10.88;;;16.60;53.60;;;;;;5085732;28;20232;-69
2022/12/21 09:28:04;;;;;;;13.57;10.48;;;16.70;54.10;;;;;;5086118;28;20636;-69
2022/12/21 09:30:30;;;;;;;15.45;11.10;;;17.00;54.00;;;;;;5085645;28;20210;-69
2022/12/21 09:32:56;;;;;;;19.48;12.40;;;17.10;52.70;;;;;;5083976;28;20301;-68
2022/12/21 09:35:24;;;;;;;16.25;12.10;;;17.10;51.70;;;;;;5086046;28;20274;-68
2022/12/21 09:37:50;;;;;;;21.00;12.18;;;16.90;52.20;;;;;;5086347;28;20213;-69
2022/12/21 09:40:18;;;;;;;18.40;11.07;;;16.90;53.20;;;;;;5086604;28;20628;-69
2022/12/21 09:42:46;;;;;;;18.83;11.57;;;17.10;52.50;;;;;;5086358;28;20239;-68
2022/12/21 09:45:18;;;;;;;19.85;11.23;;;17.30;53.30;;;;;;5084634;28;20266;-69
2022/12/21 09:47:50;;;;;;;19.02;12.55;;;17.50;54.10;;;;;;5085624;28;20251;-68
2022/12/21 09:50:26;;;;;;;23.85;14.15;;;17.80;53.80;;;;;;5085686;28;20222;-69
2022/12/21 09:53:03;;;;;;;20.25;15.10;;;18.20;53.00;;;;;;5083773;28;20197;-69
2022/12/21 09:55:36;;;;;;;20.90;14.48;;;18.50;51.80;;;;;;5084459;28;20677;-69
2022/12/21 09:58:05;;;;;;;31.48;15.20;;;18.60;52.40;;;;;;5084069;28;20671;-68
2022/12/21 10:00:35;;;;;;;24.33;16.65;;;18.80;51.70;;;;;;5085923;28;20179;-67
2022/12/21 10:03:19;;;;;;;25.33;17.13;;;18.80;50.80;;;;;;5086283;28;21023;-69
2022/12/21 10:06:00;;;;;;;19.40;16.02;;;18.80;51.60;;;;;;5083338;28;20287;-69
2022/12/21 10:08:53;;;;;;;27.92;17.90;;;18.70;50.10;;;;;;5085232;28;20262;-68
2022/12/21 10:11:28;;;;;;;33.65;20.17;;;18.90;51.70;;;;;;5084421;28;20225;-68
2022/12/21 10:14:29;;;;;;;30.77;21.35;;;19.00;50.80;;;;;;5084578;28;20178;-68
2022/12/21 10:17:10;;;;;;;34.08;20.17;;;19.20;48.50;;;;;;5084414;28;20180;-69
2022/12/21 10:19:54;;;;;;;30.75;20.30;;;19.00;49.40;;;;;;5085258;28;20185;-69
2022/12/21 10:22:25;;;;;;;36.25;21.30;;;18.60;49.90;;;;;;5084293;28;20246;-68
2022/12/21 10:24:56;;;;;;;34.47;22.02;;;18.10;49.50;;;;;;5083508;28;20198;-68
2022/12/21 10:27:34;;;;;;;29.80;18.30;;;17.70;51.70;;;;;;5083859;28;20679;-67
2022/12/21 10:30:00;;;;;;;30.60;19.42;;;17.20;50.10;;;;;;5081697;28;20301;-68
2022/12/21 10:32:31;;;;;;;33.22;20.67;;;17.00;51.80;;;;;;5084703;28;20257;-70
2022/12/21 10:35:14;;;;;;;30.25;19.50;;;16.90;51.90;;;;;;5082621;28;20191;-70
2022/12/21 10:37:40;;;;;;;26.25;19.45;;;16.80;50.90;;;;;;5084752;28;20774;-69
2022/12/21 10:40:06;;;;;;;26.02;18.98;;;16.90;51.60;;;;;;5082335;28;20273;-69
2022/12/21 10:42:38;;;;;;;25.10;18.30;;;16.90;50.50;;;;;;5084277;28;20186;-71
2022/12/21 10:45:04;;;;;;;22.85;15.68;;;16.70;51.80;;;;;;5081152;28;20209;-71
2022/12/21 10:47:30;;;;;;;23.05;15.95;;;16.80;52.00;;;;;;5079244;28;20206;-70
2022/12/21 10:50:11;;;;;;;25.80;16.08;;;17.00;52.00;;;;;;5079963;28;20341;-71
2022/12/21 10:52:43;;;;;;;25.58;16.17;;;17.30;50.60;;;;;;5080321;28;20674;-74
2022/12/21 10:55:17;;;;;;;24.52;15.43;;;17.40;49.70;;;;;;5080949;28;20170;-68
2022/12/21 10:58:16;;;;;;;23.58;16.13;;;17.50;50.20;;;;;;5082689;28;20819;-70
2022/12/21 11:00:57;;;;;;;20.85;14.82;;;17.20;47.40;;;;;;5080012;28;20222;-70
2022/12/21 11:03:31;;;;;;;23.42;16.02;;;17.10;51.10;;;;;;5081641;28;20434;-72
2022/12/21 11:06:09;;;;;;;22.02;16.40;;;17.20;49.80;;;;;;5081780;28;20257;-69
2022/12/21 11:08:45;;;;;;;25.40;16.60;;;17.30;50.20;;;;;;5081234;28;20213;-69
2022/12/21 11:11:34;;;;;;;24.25;16.83;;;17.40;50.20;;;;;;5079906;28;20205;-69
2022/12/21 11:14:12;;;;;;;23.33;16.05;;;17.50;49.30;;;;;;5080823;28;20679;-69
2022/12/21 11:16:38;;;;;;;29.40;17.08;;;17.70;48.10;;;;;;5079486;28;20663;-70
2022/12/21 11:19:10;;;;;;;24.50;16.95;;;17.60;48.70;;;;;;5079914;28;20298;-69
2022/12/21 11:21:48;;;;;;;26.10;17.88;;;17.60;49.10;;;;;;5080313;28;20182;-68
2022/12/21 11:24:19;;;;;;;22.75;16.38;;;17.80;52.50;;;;;;5081166;28;20585;-69
2022/12/21 11:26:59;;;;;;;30.17;17.67;;;18.00;51.00;;;;;;5079469;28;20193;-69
2022/12/21 11:29:33;;;;;;;22.67;16.23;;;18.20;48.70;;;;;;5082217;28;20185;-69
2022/12/21 11:32:07;;;;;;;20.70;16.08;;;18.30;51.10;;;;;;5081349;28;20274;-70
2022/12/21 11:35:05;;;;;;;23.85;15.82;;;18.60;50.20;;;;;;5081777;28;20209;-71
2022/12/21 11:37:37;;;;;;;23.95;14.52;;;18.80;46.80;;;;;;5076824;28;20194;-72
2022/12/21 11:40:16;;;;;;;22.88;15.32;;;18.80;50.50;;;;;;5079708;28;20833;-70
2022/12/21 11:43:14;;;;;;;23.60;16.27;;;19.10;51.00;;;;;;5081246;28;20186;-71
2022/12/21 11:46:01;;;;;;;28.17;16.75;;;19.20;47.80;;;;;;5073103;28;20205;-69
2022/12/21 11:48:56;;;;;;;21.17;15.07;;;18.90;45.60;;;;;;5076965;28;20182;-70
2022/12/21 11:51:29;;;;;;;22.83;15.40;;;18.70;50.60;;;;;;5076694;28;20329;-70
2022/12/21 11:54:23;;;;;;;23.45;16.13;;;18.60;48.10;;;;;;5077982;28;20182;-71
2022/12/21 11:57:16;;;;;;;22.73;16.50;;;18.50;48.30;;;;;;5079061;28;20684;-71
2022/12/21 12:00:16;;;;;;;24.17;16.00;;;18.60;46.70;;;;;;5075444;28;20193;-72
2022/12/21 12:03:11;;;;;;;25.52;14.20;;;18.60;45.80;;;;;;5078886;28;20785;-70
2022/12/21 12:05:52;;;;;;;23.30;14.82;;;18.70;47.80;;;;;;5078583;28;20251;-69
2022/12/21 12:08:42;;;;;;;18.27;14.75;;;18.70;46.90;;;;;;5078273;28;20897;-70
2022/12/21 12:11:27;;;;;;;22.60;14.45;;;18.80;49.30;;;;;;5079957;28;20218;-71
2022/12/21 12:14:02;;;;;;;22.83;15.43;;;18.80;48.20;;;;;;5081629;28;20178;-72
2022/12/21 12:16:43;;;;;;;19.20;14.50;;;18.80;46.80;;;;;;5082172;28;20646;-72
2022/12/21 12:19:45;;;;;;;20.65;14.95;;;18.90;49.70;;;;;;5079946;28;20178;-70
2022/12/21 12:22:38;;;;;;;18.88;13.80;;;19.00;49.10;;;;;;5081714;28;20196;-72
2022/12/21 12:25:36;;;;;;;21.50;14.60;;;19.10;48.00;;;;;;5081460;28;20829;-71
2022/12/21 12:28:33;;;;;;;17.55;13.57;;;18.90;47.30;;;;;;5079760;28;20229;-73
2022/12/21 12:31:17;;;;;;;18.25;13.57;;;18.50;47.20;;;;;;5081127;28;20321;-72
2022/12/21 12:33:49;;;;;;;18.52;13.88;;;18.00;46.40;;;;;;5080604;28;20186;-72
2022/12/21 12:36:31;;;;;;;20.45;14.40;;;17.80;46.30;;;;;;5079607;28;20205;-72
2022/12/21 12:39:08;;;;;;;20.40;12.90;;;17.60;46.10;;;;;;5079452;28;20282;-72
2022/12/21 12:42:09;;;;;;;20.33;13.20;;;17.60;47.60;;;;;;5080665;28;20204;-71
2022/12/21 12:44:58;;;;;;;17.70;13.00;;;17.40;47.40;;;;;;5081581;28;20197;-72
2022/12/21 12:47:48;;;;;;;18.45;12.88;;;17.30;47.20;;;;;;5082219;28;20186;-72
2022/12/21 12:50:19;;;;;;;23.70;13.93;;;17.20;47.70;;;;;;5080360;28;20214;-72
2022/12/21 12:53:17;;;;;;;21.17;13.45;;;17.20;47.70;;;;;;5081234;28;20186;-67
2022/12/21 12:56:07;;;;;;;18.23;13.30;;;17.00;47.10;;;;;;5081192;28;20174;-68
2022/12/21 12:58:51;;;;;;;19.08;13.55;;;17.10;47.00;;;;;;5085603;28;20186;-68
2022/12/21 13:01:31;;;;;;;17.10;12.95;;;16.60;48.20;;;;;;5084689;28;20646;-69
2022/12/21 13:04:30;;;;;;;21.23;13.95;;;16.40;48.10;;;;;;5085024;28;20178;-69
2022/12/21 13:07:05;;;;;;;19.88;13.10;;;16.30;48.50;;;;;;5084259;28;20683;-70
2022/12/21 13:09:45;;;;;;;15.75;12.38;;;16.10;48.80;;;;;;5084152;28;20181;-70
2022/12/21 13:12:23;;;;;;;16.52;12.80;;;15.90;48.40;;;;;;5085806;28;20186;-69
2022/12/21 13:15:22;;;;;;;15.88;12.00;;;15.80;49.20;;;;;;5086444;28;20247;-69